Flight Track Log - Related Links

Times and Time Zones

All times are in EDT time to prevent confusion due to time zone crossing. See the EJA941 flight status page for this flight to view local times or setup timezone preferences in your user account.

Time Position Orientation Groundspeed Altitude Reporting Facility
EDT Latitude Longitude Course Direction KTS MPH feet Rate Location/Type
Tue 02:28:33 PM 35.8231 -78.8736 232° Southwest 228 262 6,300  Level Washington Center
Tue 02:29:22 PM 35.8531 -78.9236 307° West 223 257 10,000 3,491 Climbing Washington Center
Tue 02:30:23 PM 35.9222 -78.9083 10° North 237 273 12,700 2,508 Climbing Washington Center
Tue 02:31:24 PM 36.0053 -78.8503 29° Northeast 268 308 15,100 2,281 Climbing Washington Center
Tue 02:32:24 PM 36.0967 -78.7925 27° Northeast 323 372 17,300 1,932 Climbing Washington Center
Tue 02:33:22 PM 36.1900 -78.7344 27° Northeast 348 400 18,900 1,613 Climbing Washington Center
Tue 02:34:23 PM 36.2853 -78.6764 26° Northeast 367 422 20,500 1,600 Climbing Washington Center
Tue 02:35:22 PM 36.3850 -78.6133 27° Northeast 379 436 22,100 1,563 Climbing Washington Center
Tue 02:36:22 PM 36.4906 -78.5656 20° North 390 449 23,600 1,537 Climbing Washington Center
Tue 02:37:23 PM 36.6000 -78.5283 15° North 397 457 25,200 1,475 Climbing Washington Center
Tue 02:38:24 PM 36.7033 -78.4858 18° North 414 476 26,600 1,462 Climbing Washington Center
Tue 02:39:22 PM 36.8219 -78.4122 26° Northeast 425 489 28,100 1,361 Climbing Washington Center
Tue 02:40:23 PM 36.9200 -78.3144 39° Northeast 434 499 29,300 1,230 Climbing Washington Center
Tue 02:41:24 PM 37.0225 -78.2089 39° Northeast 452 520 30,600 1,240 Climbing Washington Center
Tue 02:42:24 PM 37.1206 -78.1081 39° Northeast 465 535 31,800 1,525 Climbing Washington Center
Tue 02:43:22 PM 37.2231 -78.0019 39° Northeast 465 535 33,600 1,613 Climbing Washington Center
Tue 02:44:23 PM 37.3253 -77.8981 39° Northeast 465 535 35,000 689 Climbing Washington Center
Tue 02:45:24 PM 37.4314 -77.7889 39° Northeast 471 542 35,000  Level Washington Center
Tue 02:46:25 PM 37.5442 -77.6742 39° Northeast 493 567 35,000  Level Washington Center
Tue 02:47:22 PM 37.6567 -77.5539 40° Northeast 509 586 35,000  Level Washington Center
Tue 02:48:24 PM 37.7692 -77.4333 40° Northeast 521 600 35,000  Level Washington Center
Tue 02:49:22 PM 37.8753 -77.3017 44° Northeast 521 600 35,000  Level Washington Center
Tue 02:50:22 PM 37.9833 -77.1778 42° Northeast 521 600 35,000  Level Washington Center
Tue 02:51:22 PM 38.0892 -77.0508 43° Northeast 521 600 35,000  Level Washington Center
Tue 02:52:24 PM 38.1950 -76.9258 43° Northeast 521 600 35,000  Level Washington Center
Tue 02:53:22 PM 38.3028 -76.7956 43° Northeast 521 600 35,000  Level Washington Center
Tue 02:54:23 PM 38.4061 -76.6753 42° Northeast 521 600 35,000  Level Washington Center
Tue 02:55:24 PM 38.5114 -76.5442 44° Northeast 521 600 35,000  Level Washington Center
Tue 02:56:25 PM 38.6186 -76.4153 43° Northeast 521 600 35,000  Level Washington Center
Tue 02:57:23 PM 38.7258 -76.2861 43° Northeast 526 605 35,000 -153 Level Washington Center
Tue 02:58:23 PM 38.8308 -76.1567 44° Northeast 526 605 34,700 -850 Descending Washington Center
Tue 02:59:23 PM 38.9144 -76.0558 43° Northeast 526 605 33,300 -1,636 Descending Washington Center
Tue 03:00:24 PM 39.0442 -75.8964 44° Northeast 526 605 31,400 -2,017 Descending Washington Center
Tue 03:01:22 PM 39.1611 -75.7631 41° Northeast 538 619 29,300 -1,932 Descending Washington Center
Tue 03:02:22 PM 39.2550 -75.6453 44° Northeast 538 619 27,600 -1,700 Descending Washington Center
Tue 03:03:22 PM 39.3697 -75.5031 44° Northeast 522 601 25,900 -1,289 Descending Washington Center
Tue 03:04:23 PM 39.4611 -75.3900 44° Northeast 512 589 25,000 -833 Descending Washington Center
Tue 03:06:51 PM 39.6922 -75.0389 49° Northeast 490 564 23,000 -577 Descending New York Center
Tue 03:07:51 PM 39.7297 -74.8656 74° East 481 554 23,000  Level New York Center
Tue 03:08:51 PM 39.7708 -74.7033 72° East 476 548 23,000  Level New York Center
Tue 03:09:52 PM 39.8356 -74.5692 58° Northeast 476 548 23,000  Level New York Center
Tue 03:10:52 PM 39.9139 -74.4056 58° Northeast 477 549 23,000  Level New York Center
Tue 03:11:51 PM 39.9850 -74.2575 58° Northeast 483 556 23,000  Level New York Center
Tue 03:12:51 PM 40.0558 -74.1147 57° Northeast 478 550 23,000  Level New York Center
Tue 03:13:51 PM 40.1200 -73.9794 58° Northeast 480 552 23,000 -99 Level New York Center
Tue 03:14:52 PM 40.1906 -73.8331 58° Northeast 480 552 22,800 -1,725 Descending New York Center
Tue 03:16:31 PM 40.3128 -73.5722 58° Northeast 470 541 18,400 -2,189 Descending Boston Center
Tue 03:17:31 PM 40.3994 -73.4539 46° Northeast 455 524 17,000 -700 Descending Boston Center
Tue 03:18:31 PM 40.5186 -73.4064 17° North 425 489 17,000 57 Level Boston Center
Tue 03:19:17 PM 40.6167 -73.3667 17° North 446 513 17,100 -432 Climbing New York TRACON
Tue 03:20:22 PM 40.7333 -73.3167 18° North 409 471 16,200 -1,008 Descending New York TRACON
Tue 03:21:22 PM 40.8167 -73.2500 31° Northeast 352 405 15,000 -1,461 Descending New York TRACON
Tue 03:22:17 PM 40.8667 -73.1667 52° Northeast 358 412 13,400 -1,700 Descending New York TRACON
Tue 03:23:22 PM 40.9167 -73.0500 60° Northeast 311 358 11,600 -2,100 Descending New York TRACON
Tue 03:24:17 PM 40.9833 -73.0500 360° North 305 351 9,200 -2,281 Descending New York TRACON
Tue 03:25:23 PM 41.0167 -73.1333 298° West 261 300 7,000 -2,333 Descending New York TRACON
Tue 03:26:23 PM 41.0500 -73.2167 298° West 241 277 4,300 -1,450 Descending New York TRACON
Tue 03:27:23 PM 41.0833 -73.2833 304° West 226 260 4,100 -263 Descending New York TRACON
Tue 03:28:17 PM 41.1000 -73.3500 288° West 203 234 3,800 -526 Descending New York TRACON
Tue 03:29:17 PM 41.0667 -73.4000 229° Southwest 195 224 3,100 -714 Descending New York TRACON
Tue 03:30:23 PM 41.0500 -73.4667 252° West 194 223 2,300 -476 Descending New York TRACON
Tue 03:31:23 PM 41.0167 -73.5333 236° Southwest 188 216 2,100 -105 Descending New York TRACON
Tue 03:32:17 PM 41.0000 -73.5833 246° West 194 223 2,100 -158 Level New York TRACON
Tue 03:33:17 PM 41.0000 -73.6500 270° West 200 230 1,800 -600 Descending New York TRACON
Tue 03:34:17 PM 41.0500 -73.6833 333° Northwest 133 153 900 -900 Descending New York TRACON

Login

Don't have an account? Register now (free) for customized features, flight alerts, and more!